Time;durP1;ratioP1;P1;durP2;ratioP2;P2;SDS_P1;SDS_P2;PMS_P1;PMS_P2;Temp;Humidity;BMP_temperature;BMP_pressure;BME280_temperature;BME280_humidity;BME280_pressure;Samples;Min_cycle;Max_cycle;Signal;HPM_P1;HPM_P2
2021/12/04 00:01:18;;;;;;;0.10;0.10;;;1.40;99.90;-0.20;95394.00;;;;5002389;28;20200;-75
2021/12/04 00:03:46;;;;;;;0.10;0.10;;;1.40;99.90;-0.20;95447.00;;;;4995407;28;20216;-75
2021/12/04 00:06:19;;;;;;;0.20;0.20;;;1.40;99.90;-0.20;95432.00;;;;4996015;28;20211;-75
2021/12/04 00:08:48;;;;;;;0.10;0.10;;;1.40;99.90;-0.30;95383.00;;;;4995693;28;20197;-74
2021/12/04 00:11:17;;;;;;;0.10;0.10;;;1.40;99.90;-0.40;95306.00;;;;4987056;28;20205;-74
2021/12/04 00:13:45;;;;;;;0.10;0.10;;;1.40;99.90;-0.30;95424.00;;;;5000905;28;20581;-72
2021/12/04 00:16:14;;;;;;;0.10;0.10;;;1.40;99.90;-0.10;95616.00;;;;5008493;28;20223;-73
2021/12/04 00:18:42;;;;;;;0.10;0.10;;;1.30;99.90;-0.10;95703.00;;;;4996214;28;20609;-74
2021/12/04 00:21:10;;;;;;;0.10;0.10;;;1.30;99.90;-0.20;95711.00;;;;4996731;28;20196;-76
2021/12/04 00:23:38;;;;;;;0.10;0.10;;;1.30;99.90;-0.30;95534.00;;;;5002635;28;20631;-72
2021/12/04 00:26:08;;;;;;;0.20;0.20;;;1.30;99.90;-0.30;95555.00;;;;5014021;28;20196;-73
2021/12/04 00:28:36;;;;;;;0.10;0.10;;;1.30;99.90;-0.40;95474.00;;;;5013007;28;20196;-75
2021/12/04 00:31:07;;;;;;;0.10;0.10;;;1.20;99.90;-0.50;95320.00;;;;4995502;28;20193;-73
2021/12/04 00:33:39;;;;;;;0.10;0.10;;;1.20;99.90;-0.50;95190.00;;;;4992676;28;20232;-75
2021/12/04 00:36:13;;;;;;;0.10;0.10;;;1.20;99.90;-0.50;95189.00;;;;4999349;28;20684;-75
2021/12/04 00:49:41;;;;;;;0.10;0.10;;;1.10;99.90;-0.70;95174.00;;;;4998684;28;20662;-73
2021/12/04 00:52:09;;;;;;;0.10;0.10;;;1.10;99.90;-0.70;95134.00;;;;4994641;28;20271;-75
2021/12/04 00:54:37;;;;;;;0.10;0.10;;;1.10;99.90;-0.70;95127.00;;;;4993615;28;20220;-74
2021/12/04 00:57:07;;;;;;;0.20;0.20;;;1.10;99.90;-0.70;95130.00;;;;4994278;28;20196;-73
2021/12/04 00:59:35;;;;;;;0.10;0.10;;;1.10;99.90;-0.60;95307.00;;;;4993957;28;20205;-74
2021/12/04 01:02:04;;;;;;;0.10;0.10;;;1.10;99.90;-0.70;95307.00;;;;4993007;28;20204;-74
2021/12/04 01:04:33;;;;;;;0.15;0.15;;;1.10;99.90;-0.60;95308.00;;;;4994374;28;20665;-73
2021/12/04 01:07:01;;;;;;;0.10;0.10;;;1.10;99.90;-0.60;95520.00;;;;4994338;28;20200;-74
2021/12/04 01:09:29;;;;;;;0.20;0.20;;;1.00;99.90;-0.60;95519.00;;;;4994343;28;20196;-75
2021/12/04 01:11:57;;;;;;;0.20;0.20;;;1.00;99.90;-0.60;95586.00;;;;4993806;28;20524;-73
2021/12/04 01:14:29;;;;;;;0.10;0.10;;;1.00;99.90;-0.60;95567.00;;;;4993983;28;20227;-75
2021/12/04 01:16:57;;;;;;;0.10;0.10;;;1.00;99.90;-0.80;95255.00;;;;4982214;28;20201;-74
2021/12/04 01:19:29;;;;;;;0.20;0.20;;;1.00;99.90;-0.80;95217.00;;;;4991647;28;20276;-70
2021/12/04 01:21:58;;;;;;;0.10;0.10;;;1.00;99.90;-0.50;95584.00;;;;4994051;28;20279;-72
2021/12/04 01:24:26;;;;;;;0.20;0.20;;;1.00;99.90;-0.50;95554.00;;;;5010094;28;20661;-73
2021/12/04 01:26:55;;;;;;;0.10;0.10;;;1.00;99.90;-0.90;94880.00;;;;5010712;28;20203;-72
2021/12/04 01:29:23;;;;;;;0.10;0.10;;;1.00;99.90;-0.40;95600.00;;;;5016345;28;20238;-72
2021/12/04 01:31:53;;;;;;;0.10;0.10;;;1.10;99.90;-0.40;95586.00;;;;5015107;28;20203;-72
2021/12/04 01:34:21;;;;;;;0.10;0.10;;;1.10;99.90;-0.40;95552.00;;;;5004618;28;20216;-72
2021/12/04 01:36:48;;;;;;;0.10;0.10;;;1.10;99.90;-0.40;95583.00;;;;5008424;28;20255;-73
2021/12/04 01:39:17;;;;;;;0.10;0.10;;;1.10;99.90;-0.40;95615.00;;;;4993620;28;20197;-74
2021/12/04 01:41:45;;;;;;;0.10;0.10;;;1.10;99.90;-0.40;95569.00;;;;4993618;28;20188;-76
2021/12/04 01:44:14;;;;;;;0.10;0.10;;;1.10;99.90;-0.40;95523.00;;;;4989854;28;20231;-74
2021/12/04 01:46:42;;;;;;;0.10;0.10;;;1.10;99.90;-0.40;95567.00;;;;4994300;28;20192;-73
2021/12/04 01:49:12;;;;;;;0.20;0.20;;;1.10;99.90;-0.40;95519.00;;;;5001752;28;20201;-74
2021/12/04 01:51:40;;;;;;;0.10;0.10;;;1.10;99.90;-0.40;95516.00;;;;4997194;28;20246;-73
2021/12/04 01:54:08;;;;;;;0.10;0.10;;;1.10;99.90;-0.50;95479.00;;;;4996559;28;20216;-73
2021/12/04 01:56:36;;;;;;;0.13;0.13;;;1.10;99.90;-0.80;95497.00;;;;4992515;28;20255;-73
2021/12/04 01:59:04;;;;;;;0.10;0.10;;;1.10;99.90;-0.40;95517.00;;;;5005331;28;20665;-73
2021/12/04 02:01:34;;;;;;;0.10;0.10;;;1.10;99.90;-0.40;95516.00;;;;5012846;28;20199;-73
2021/12/04 02:04:05;;;;;;;0.10;0.10;;;1.10;99.90;-0.40;95468.00;;;;4986242;28;20598;-73
2021/12/04 02:06:35;;;;;;;0.10;0.10;;;1.10;99.90;-0.60;95069.00;;;;4994383;28;20554;-76
2021/12/04 02:09:03;;;;;;;0.10;0.10;;;1.10;99.90;-0.80;94504.00;;;;4993883;28;20263;-73
2021/12/04 02:11:31;;;;;;;0.10;0.10;;;1.20;99.90;-0.40;95482.00;;;;4985479;28;20204;-73
2021/12/04 02:13:59;;;;;;;0.10;0.10;;;1.20;99.90;-0.40;95491.00;;;;5010938;28;20649;-73
2021/12/04 02:16:27;;;;;;;0.10;0.10;;;1.20;99.90;-0.40;95476.00;;;;5010745;28;20222;-72
2021/12/04 02:18:55;;;;;;;0.10;0.10;;;1.20;99.90;-0.40;95466.00;;;;5003180;28;20202;-73
2021/12/04 02:21:26;;;;;;;0.10;0.10;;;1.20;99.90;-0.40;95465.00;;;;4997252;28;20193;-73
2021/12/04 02:23:55;;;;;;;0.10;0.10;;;1.20;99.90;-0.40;95483.00;;;;4993016;28;20228;-73
2021/12/04 02:26:23;;;;;;;0.10;0.10;;;1.20;99.90;-0.30;95471.00;;;;5022278;28;20203;-73
2021/12/04 02:28:51;;;;;;;0.17;0.17;;;1.20;99.90;-0.30;95498.00;;;;4999607;28;20258;-74
2021/12/04 02:31:19;;;;;;;0.10;0.10;;;1.20;99.90;-0.30;95489.00;;;;5010478;28;20242;-74
2021/12/04 02:33:47;;;;;;;0.10;0.10;;;1.20;99.90;-0.30;95510.00;;;;4999083;28;20299;-74
2021/12/04 02:36:15;;;;;;;0.13;0.13;;;1.20;99.90;-0.30;95514.00;;;;5004899;28;20262;-74
2021/12/04 02:38:49;;;;;;;0.10;0.10;;;1.20;99.90;-0.30;95477.00;;;;4977274;28;20197;-74
2021/12/04 02:41:18;;;;;;;0.10;0.10;;;1.30;99.90;-0.40;95430.00;;;;4991196;28;20676;-73
2021/12/04 02:43:49;;;;;;;0.10;0.10;;;1.20;99.90;-0.40;95449.00;;;;4999232;28;20220;-74
2021/12/04 02:46:18;;;;;;;0.10;0.10;;;1.20;99.90;-0.40;95445.00;;;;5011862;28;20258;-73
2021/12/04 02:48:47;;;;;;;0.10;0.10;;;1.20;99.90;-0.40;95462.00;;;;5003792;28;20187;-74
2021/12/04 02:51:16;;;;;;;0.10;0.10;;;1.10;99.90;-0.40;95483.00;;;;5008020;28;20195;-73
2021/12/04 02:53:45;;;;;;;0.10;0.10;;;1.10;99.90;-0.40;95484.00;;;;5011247;28;20218;-73
2021/12/04 02:56:14;;;;;;;0.10;0.10;;;1.10;99.90;-0.40;95390.00;;;;4973584;28;20220;-74
2021/12/04 02:58:49;;;;;;;0.10;0.10;;;1.10;99.90;-0.60;95079.00;;;;4984934;28;20196;-73
2021/12/04 03:01:17;;;;;;;0.10;0.10;;;1.10;99.90;-0.30;95481.00;;;;4997836;28;20188;-74
2021/12/04 03:03:46;;;;;;;0.10;0.10;;;1.10;99.90;-0.40;95466.00;;;;5012003;28;20294;-72
2021/12/04 03:06:15;;;;;;;0.10;0.10;;;1.10;99.90;-0.40;95450.00;;;;4991719;28;20214;-72
2021/12/04 03:08:46;;;;;;;0.10;0.10;;;1.10;99.90;-0.40;95481.00;;;;5014315;28;20188;-72
2021/12/04 03:11:16;;;;;;;0.10;0.10;;;1.10;99.90;-0.50;95395.00;;;;5014114;28;20196;-72
2021/12/04 03:13:43;;;;;;;0.10;0.10;;;1.10;99.90;-0.40;95377.00;;;;5017016;28;20244;-72
2021/12/04 03:16:11;;;;;;;0.10;0.10;;;1.10;99.90;-0.40;95418.00;;;;5003122;28;20274;-72
2021/12/04 03:18:39;;;;;;;0.10;0.10;;;1.20;99.90;-0.40;95398.00;;;;5018988;28;20187;-72
2021/12/04 03:21:08;;;;;;;0.10;0.10;;;1.20;99.90;-0.30;95420.00;;;;5001551;28;20197;-72
2021/12/04 03:23:41;;;;;;;0.10;0.10;;;1.20;99.90;-0.30;95393.00;;;;5007441;28;20224;-72
2021/12/04 03:26:12;;;;;;;0.10;0.10;;;1.30;99.90;-0.30;95394.00;;;;4988422;28;20204;-75
2021/12/04 03:28:40;;;;;;;0.10;0.10;;;1.30;99.90;-0.20;95440.00;;;;4996031;28;20207;-74
2021/12/04 03:31:12;;;;;;;0.10;0.10;;;1.30;99.90;-0.20;95448.00;;;;4991342;28;20224;-75
2021/12/04 03:42:13;;;;;;;0.10;0.10;;;1.30;99.90;-0.30;95413.00;;;;4965616;28;20229;-74
2021/12/04 03:44:41;;;;;;;0.10;0.10;;;1.30;99.90;-0.20;95463.00;;;;4979542;28;20626;-73
2021/12/04 03:47:11;;;;;;;0.10;0.10;;;1.30;99.90;-0.20;95450.00;;;;4993003;28;20209;-73
2021/12/04 03:49:40;;;;;;;0.10;0.10;;;1.30;99.90;-0.30;95217.00;;;;5024104;28;20211;-72
2021/12/04 03:52:11;;;;;;;0.10;0.10;;;1.30;99.90;-0.30;95384.00;;;;5007031;28;20201;-72
2021/12/04 03:54:39;;;;;;;0.10;0.10;;;1.20;99.90;-0.30;95446.00;;;;5006000;28;20215;-75
2021/12/04 03:57:08;;;;;;;0.10;0.10;;;1.20;99.90;-0.30;95445.00;;;;5011159;28;20554;-72
2021/12/04 03:59:40;;;;;;;0.10;0.10;;;1.20;99.90;-0.40;95427.00;;;;4993113;28;20739;-72
2021/12/04 04:02:12;;;;;;;0.13;0.13;;;1.10;99.90;-0.50;95328.00;;;;5002957;28;20196;-75
2021/12/04 04:04:40;;;;;;;0.10;0.10;;;1.10;99.90;-0.60;95420.00;;;;5013242;28;20195;-75
2021/12/04 04:07:09;;;;;;;0.10;0.10;;;1.00;99.90;-0.60;95410.00;;;;5006985;28;20666;-74
2021/12/04 04:09:37;;;;;;;0.10;0.10;;;0.90;99.90;-0.60;95397.00;;;;5009681;28;20653;-74
2021/12/04 04:12:07;;;;;;;0.10;0.10;;;0.90;99.90;-0.70;95385.00;;;;5012886;28;20201;-77
2021/12/04 04:14:37;;;;;;;0.10;0.10;;;0.80;99.90;-0.70;95463.00;;;;5010374;28;20364;-75
2021/12/04 04:17:06;;;;;;;0.10;0.10;;;0.90;99.90;-0.70;95430.00;;;;4993107;28;20228;-75
2021/12/04 04:19:34;;;;;;;0.10;0.10;;;0.80;99.90;-0.90;95180.00;;;;4994470;28;20650;-73
2021/12/04 04:22:02;;;;;;;0.10;0.10;;;0.80;99.90;-0.80;95402.00;;;;4993075;28;20254;-73
2021/12/04 04:24:31;;;;;;;0.10;0.10;;;0.70;99.90;-1.00;95417.00;;;;5001186;28;20677;-74
2021/12/04 04:27:00;;;;;;;0.10;0.10;;;0.60;99.90;-0.90;95414.00;;;;4985439;28;20196;-73
2021/12/04 04:29:29;;;;;;;0.10;0.10;;;0.60;99.90;-1.00;95417.00;;;;4999615;28;20197;-74
2021/12/04 04:31:58;;;;;;;0.10;0.10;;;0.60;99.90;-1.00;95444.00;;;;4991466;28;20259;-73
2021/12/04 04:34:30;;;;;;;0.10;0.10;;;0.50;99.90;-0.90;95425.00;;;;5001160;28;20192;-74
2021/12/04 04:37:13;;;;;;;0.10;0.10;;;0.50;99.90;-1.00;95386.00;;;;4992714;28;20231;-74
2021/12/04 04:40:11;;;;;;;0.10;0.10;;;0.50;99.90;-1.00;95434.00;;;;5002302;28;20204;-74
2021/12/04 04:59:26;;;;;;;0.20;0.20;;;0.50;99.90;-1.00;95384.00;;;;5002168;28;20200;-73
2021/12/04 05:02:05;;;;;;;0.20;0.20;;;0.50;99.90;-1.00;95378.00;;;;5009475;28;20250;-73
2021/12/04 05:10:32;;;;;;;0.20;0.20;;;0.50;99.90;-1.00;95367.00;;;;4945207;28;20202;-73
2021/12/04 05:13:02;;;;;;;0.10;0.10;;;0.50;99.90;-1.00;95418.00;;;;4991061;28;20236;-73
2021/12/04 05:15:37;;;;;;;0.10;0.10;;;0.50;99.90;-1.00;95396.00;;;;4995192;28;20199;-74
2021/12/04 05:18:15;;;;;;;0.10;0.10;;;0.50;99.90;-1.10;95352.00;;;;5027298;28;20820;-73
2021/12/04 05:20:50;;;;;;;0.10;0.10;;;0.50;99.90;-1.10;95359.00;;;;5004624;28;20746;-74
2021/12/04 05:23:18;;;;;;;0.20;0.20;;;0.50;99.90;-1.00;95364.00;;;;4967656;28;991286;-74
2021/12/04 05:25:46;;;;;;;0.10;0.10;;;0.50;99.90;-1.30;94820.00;;;;4987351;28;20212;-74
2021/12/04 05:28:15;;;;;;;0.10;0.10;;;0.50;99.90;-1.20;95262.00;;;;4999780;28;20230;-74
2021/12/04 05:30:45;;;;;;;0.10;0.10;;;0.50;99.90;-1.10;95353.00;;;;4992534;28;20662;-73
2021/12/04 05:33:13;;;;;;;0.10;0.10;;;0.50;99.90;-1.10;95337.00;;;;5001146;28;20304;-74
2021/12/04 05:35:41;;;;;;;0.10;0.10;;;0.40;99.90;-1.10;95399.00;;;;5002851;28;20192;-73
2021/12/04 05:38:10;;;;;;;0.15;0.15;;;0.40;99.90;-1.10;95380.00;;;;5012607;28;20763;-74
2021/12/04 05:40:38;;;;;;;0.20;0.20;;;0.40;99.90;-1.10;95394.00;;;;4995270;28;20196;-74
2021/12/04 05:43:06;;;;;;;0.10;0.10;;;0.40;99.90;-1.10;95382.00;;;;5002012;28;20266;-74
2021/12/04 05:45:38;;;;;;;0.10;0.10;;;0.40;99.90;-1.10;95299.00;;;;4994600;28;20247;-74
2021/12/04 05:48:11;;;;;;;0.10;0.10;;;0.40;99.90;-1.10;95397.00;;;;5006420;28;20628;-74
2021/12/04 05:50:58;;;;;;;0.10;0.10;;;0.40;99.90;-1.20;95284.00;;;;5000905;28;20200;-74
2021/12/04 05:53:29;;;;;;;0.20;0.20;;;0.40;99.90;-1.20;95353.00;;;;4973341;28;20253;-74
2021/12/04 05:55:57;;;;;;;0.20;0.20;;;0.40;99.90;-1.10;95385.00;;;;4973895;28;20227;-74
2021/12/04 05:58:30;;;;;;;0.10;0.10;;;0.40;99.90;-1.20;95321.00;;;;4978296;28;20224;-74
2021/12/04 06:01:00;;;;;;;0.10;0.10;;;0.40;99.90;-1.20;95370.00;;;;4993473;28;20197;-75
2021/12/04 06:03:30;;;;;;;0.10;0.10;;;0.40;99.90;-1.20;95144.00;;;;5009021;28;20639;-74
2021/12/04 06:05:59;;;;;;;0.20;0.20;;;0.40;99.90;-1.20;95335.00;;;;4973880;28;20197;-74
2021/12/04 06:08:28;;;;;;;0.20;0.20;;;0.40;99.90;-1.10;95332.00;;;;4980187;28;20259;-74
2021/12/04 06:10:58;;;;;;;0.10;0.10;;;0.40;99.90;-1.10;95364.00;;;;4985847;28;20200;-74
2021/12/04 06:13:27;;;;;;;0.10;0.10;;;0.50;99.90;-1.00;95330.00;;;;4993304;28;20216;-74
2021/12/04 06:15:56;;;;;;;0.10;0.10;;;0.50;99.90;-1.10;95337.00;;;;5003738;28;20611;-74
2021/12/04 06:18:25;;;;;;;0.10;0.10;;;0.50;99.90;-1.30;94769.00;;;;5002955;28;20216;-74
2021/12/04 06:23:40;;;;;;;0.10;0.10;;;0.40;99.90;-1.10;95364.00;;;;5005495;28;20290;-74
2021/12/04 06:26:09;;;;;;;0.10;0.10;;;0.40;99.90;-1.10;95365.00;;;;5012626;28;20195;-73
2021/12/04 06:28:38;;;;;;;0.10;0.10;;;0.40;99.90;-1.30;95119.00;;;;4986582;28;20196;-72
2021/12/04 06:31:07;;;;;;;0.10;0.10;;;0.40;99.90;-1.20;95259.00;;;;4992997;28;20255;-72
2021/12/04 06:33:37;;;;;;;0.10;0.10;;;0.40;99.90;-1.10;95205.00;;;;5002468;28;20704;-72
2021/12/04 06:36:07;;;;;;;0.10;0.10;;;0.40;99.90;-1.10;95275.00;;;;4998579;28;20270;-74
2021/12/04 06:38:36;;;;;;;0.10;0.10;;;0.50;99.90;-1.20;95238.00;;;;4998551;28;20820;-74
2021/12/04 06:41:06;;;;;;;0.17;0.17;;;0.50;99.90;-1.10;95261.00;;;;4998535;28;20239;-74
2021/12/04 06:43:36;;;;;;;0.10;0.10;;;0.50;99.90;-1.20;95165.00;;;;5000947;28;20208;-73
2021/12/04 06:46:06;;;;;;;0.10;0.10;;;0.50;99.90;-1.30;95215.00;;;;4997476;28;20250;-73
2021/12/04 06:48:39;;;;;;;0.10;0.10;;;0.40;99.90;-1.20;95145.00;;;;4996954;28;20200;-73
2021/12/04 06:51:16;;;;;;;0.10;0.10;;;0.50;99.90;-1.20;95206.00;;;;5008569;28;20258;-73
2021/12/04 06:53:47;;;;;;;0.10;0.10;;;0.40;99.90;-1.20;95163.00;;;;4993545;28;20562;-74
2021/12/04 06:56:18;;;;;;;0.10;0.10;;;0.50;99.90;-1.20;95149.00;;;;4999834;28;20234;-73
2021/12/04 06:58:46;;;;;;;0.20;0.20;;;0.50;99.90;-1.10;95232.00;;;;5000468;28;20786;-74
2021/12/04 07:01:14;;;;;;;0.10;0.10;;;0.50;99.90;-1.20;95192.00;;;;4993429;28;20196;-74
2021/12/04 07:03:43;;;;;;;0.20;0.20;;;0.50;99.90;-1.10;95204.00;;;;5003247;28;20307;-73
2021/12/04 07:06:11;;;;;;;0.10;0.10;;;0.50;99.90;-1.10;95241.00;;;;4994482;28;20192;-73
2021/12/04 07:08:39;;;;;;;0.10;0.10;;;0.50;99.90;-1.20;95170.00;;;;5001495;28;20725;-74
2021/12/04 07:11:07;;;;;;;0.10;0.10;;;0.50;99.90;-1.20;95165.00;;;;4994938;28;20540;-73
2021/12/04 07:13:36;;;;;;;0.10;0.10;;;0.50;99.90;-1.10;95239.00;;;;4997501;28;20212;-73
2021/12/04 07:16:07;;;;;;;0.20;0.20;;;0.50;99.90;-1.10;95203.00;;;;4996952;28;20250;-74
2021/12/04 07:18:38;;;;;;;0.10;0.10;;;0.50;99.90;-1.10;95186.00;;;;4997245;28;20215;-74
2021/12/04 07:21:06;;;;;;;0.10;0.10;;;0.50;99.90;-1.10;95234.00;;;;4996717;28;20274;-74
2021/12/04 07:23:35;;;;;;;0.17;0.17;;;0.50;99.90;-1.10;95233.00;;;;5002354;28;20715;-74
2021/12/04 07:26:05;;;;;;;0.10;0.10;;;0.50;99.90;-1.30;94583.00;;;;5000928;28;20227;-74
2021/12/04 07:28:33;;;;;;;0.13;0.13;;;0.60;99.90;-0.90;95318.00;;;;5000627;28;20262;-77
2021/12/04 07:31:03;;;;;;;0.10;0.10;;;0.60;99.90;-0.90;95289.00;;;;4992292;28;20196;-75
2021/12/04 07:33:33;;;;;;;0.10;0.10;;;0.60;99.90;-0.90;95257.00;;;;4992563;28;20275;-75
2021/12/04 07:36:01;;;;;;;0.10;0.10;;;0.60;99.90;-0.90;95219.00;;;;5000577;28;20200;-72
2021/12/04 07:38:30;;;;;;;0.10;0.10;;;0.70;99.90;-0.90;95231.00;;;;5000864;28;20623;-73
2021/12/04 07:41:01;;;;;;;0.20;0.20;;;0.70;99.90;-0.80;95248.00;;;;4991427;28;20682;-72
2021/12/04 07:43:29;;;;;;;0.10;0.10;;;0.70;99.90;-0.80;95295.00;;;;5010565;28;20274;-72
2021/12/04 07:45:58;;;;;;;0.10;0.10;;;0.70;99.90;-0.80;95218.00;;;;4998594;28;20259;-73
2021/12/04 07:48:28;;;;;;;0.10;0.10;;;0.80;99.90;-0.70;95278.00;;;;5008639;28;20299;-72
2021/12/04 07:50:56;;;;;;;0.10;0.10;;;0.80;99.90;-0.80;95254.00;;;;5004821;28;20568;-73
2021/12/04 07:53:25;;;;;;;0.10;0.10;;;0.80;99.90;-0.80;95121.00;;;;5000651;28;20632;-75
2021/12/04 07:55:54;;;;;;;0.20;0.20;;;0.90;99.90;-1.00;94842.00;;;;4999417;28;20200;-75
2021/12/04 07:58:22;;;;;;;0.10;0.10;;;0.80;99.90;-1.00;95114.00;;;;5018429;28;20278;-73
2021/12/04 08:00:51;;;;;;;0.10;0.10;;;0.70;99.90;-0.90;95149.00;;;;4997378;28;20279;-72
2021/12/04 08:03:19;;;;;;;0.10;0.10;;;0.70;99.90;-0.90;95172.00;;;;4992469;28;20220;-75
2021/12/04 08:05:50;;;;;;;0.10;0.10;;;0.70;99.90;-0.80;95192.00;;;;4987304;28;20201;-72
2021/12/04 08:08:18;;;;;;;0.10;0.10;;;0.80;99.90;-0.80;95177.00;;;;4992828;28;20670;-72
2021/12/04 08:10:46;;;;;;;0.10;0.10;;;0.80;99.90;-0.70;95245.00;;;;4999181;28;20740;-73
2021/12/04 08:13:14;;;;;;;0.20;0.20;;;0.80;99.90;-0.70;95262.00;;;;5005409;28;20289;-74
2021/12/04 08:15:42;;;;;;;0.10;0.10;;;0.80;99.90;-0.70;95209.00;;;;4992580;28;20192;-74
2021/12/04 08:18:16;;;;;;;0.17;0.17;;;0.80;99.90;-0.60;95242.00;;;;5005957;28;20207;-74
2021/12/04 08:20:45;;;;;;;0.10;0.10;;;0.90;99.90;-0.60;95297.00;;;;4996691;28;20250;-74
2021/12/04 08:23:14;;;;;;;0.10;0.10;;;0.90;99.90;-0.70;95259.00;;;;5002663;28;20224;-74
2021/12/04 08:25:43;;;;;;;0.10;0.10;;;0.90;99.90;-0.60;95285.00;;;;5003789;28;20203;-74
2021/12/04 08:28:11;;;;;;;0.10;0.10;;;0.90;99.90;-0.60;95212.00;;;;5002202;28;20247;-74
2021/12/04 08:30:40;;;;;;;0.10;0.10;;;0.90;99.90;-0.50;95252.00;;;;5003558;28;20193;-74
2021/12/04 08:33:10;;;;;;;0.10;0.10;;;1.00;99.90;-0.50;95225.00;;;;5003488;28;20596;-75
2021/12/04 08:35:40;;;;;;;0.10;0.10;;;1.00;99.90;-0.50;95226.00;;;;5003508;28;20254;-74
2021/12/04 08:38:11;;;;;;;0.10;0.10;;;1.00;99.90;-0.60;95110.00;;;;5004413;28;20227;-73
2021/12/04 08:40:42;;;;;;;0.20;0.20;;;1.00;99.90;-0.50;95237.00;;;;5003468;28;20196;-74
2021/12/04 08:43:11;;;;;;;0.10;0.10;;;1.00;99.90;-0.50;95196.00;;;;5003852;28;20211;-74
2021/12/04 08:45:42;;;;;;;0.10;0.10;;;1.10;99.90;-0.40;95175.00;;;;5002178;28;20196;-75
2021/12/04 08:48:13;;;;;;;0.10;0.10;;;1.10;99.90;-0.30;95172.00;;;;5003720;28;20552;-74
2021/12/04 08:50:42;;;;;;;0.10;0.10;;;1.20;99.90;-0.30;95222.00;;;;5003491;28;20199;-75
2021/12/04 08:53:10;;;;;;;0.10;0.10;;;1.20;99.90;-0.30;95208.00;;;;5003291;28;20270;-74
2021/12/04 08:55:43;;;;;;;0.10;0.10;;;1.20;99.90;-0.30;95201.00;;;;5002044;28;20207;-75
2021/12/04 08:58:13;;;;;;;0.10;0.10;;;1.20;99.90;-0.50;94859.00;;;;5004262;28;20208;-74
2021/12/04 09:00:48;;;;;;;0.10;0.10;;;1.20;99.90;-0.60;94768.00;;;;5003377;28;20192;-74
2021/12/04 09:03:20;;;;;;;0.10;0.10;;;1.20;99.90;-0.30;95101.00;;;;5003447;28;20224;-75
2021/12/04 09:05:50;;;;;;;0.10;0.10;;;1.30;99.90;-0.10;95194.00;;;;5002515;28;20253;-75
2021/12/04 09:08:19;;;;;;;0.10;0.10;;;1.40;99.90;0.00;95168.00;;;;5003010;28;20195;-74
2021/12/04 09:10:51;;;;;;;0.10;0.10;;;1.50;99.90;0.00;95149.00;;;;5001677;28;20211;-75
2021/12/04 09:13:19;;;;;;;0.10;0.10;;;1.50;99.90;0.00;95130.00;;;;5002399;28;20227;-75
2021/12/04 09:15:48;;;;;;;0.10;0.10;;;1.60;99.90;0.00;95126.00;;;;5003105;28;20381;-75
2021/12/04 09:18:17;;;;;;;0.10;0.10;;;1.60;99.90;0.00;95043.00;;;;5002712;28;20685;-74
2021/12/04 09:20:46;;;;;;;0.10;0.10;;;1.60;99.90;-0.10;94989.00;;;;5002244;28;20752;-74
2021/12/04 09:23:16;;;;;;;0.10;0.10;;;1.60;99.90;-0.20;94691.00;;;;5008467;28;20212;-74
2021/12/04 09:25:48;;;;;;;0.10;0.10;;;1.60;99.90;0.00;95068.00;;;;5002335;28;20196;-74
2021/12/04 09:28:21;;;;;;;0.10;0.10;;;1.60;99.90;0.00;94993.00;;;;5002204;28;20262;-74
2021/12/04 09:34:02;;;;;;;0.10;0.10;;;1.70;99.90;0.20;95208.00;;;;4999555;28;20278;-74
2021/12/04 09:37:02;;;;;;;0.10;0.10;;;1.70;99.90;0.20;95163.00;;;;5002595;28;20200;-74
2021/12/04 10:02:03;;;;;;;0.17;0.17;;;1.90;99.90;0.50;95099.00;;;;4930022;29;20206;-74
2021/12/04 10:04:54;;;;;;;0.10;0.10;;;2.00;99.90;0.50;95083.00;;;;4930486;29;20202;-74
2021/12/04 10:18:57;;;;;;;0.10;0.10;;;2.20;99.90;0.70;95083.00;;;;4999822;28;20234;-75
2021/12/04 10:21:39;;;;;;;0.10;0.10;;;2.20;99.90;0.60;94961.00;;;;4997958;28;20714;-74
2021/12/04 10:24:27;;;;;;;0.10;0.10;;;2.20;99.90;0.70;95090.00;;;;4999366;28;20231;-75
2021/12/04 10:32:34;;;;;;;0.10;0.10;;;2.10;99.90;0.70;95092.00;;;;5014623;28;20510;-74
2021/12/04 10:35:12;;;;;;;0.10;0.10;;;2.10;99.90;-0.20;94988.00;;;;5001015;28;20200;-74
2021/12/04 10:37:52;;;;;;;0.10;0.10;;;2.10;99.90;0.50;94898.00;;;;5001675;28;20200;-74
2021/12/04 10:40:27;;;;;;;0.10;0.10;;;2.20;99.90;0.50;94947.00;;;;5000113;28;20564;-74
2021/12/04 10:43:00;;;;;;;0.10;0.10;;;2.10;99.90;0.50;94948.00;;;;5000628;28;20219;-75
2021/12/04 10:45:33;;;;;;;0.10;0.10;;;2.10;99.90;0.60;95039.00;;;;5000925;28;20196;-75
2021/12/04 10:48:09;;;;;;;0.10;0.10;;;2.10;99.90;0.50;94813.00;;;;5000203;28;20204;-75
2021/12/04 10:50:47;;;;;;;0.10;0.10;;;2.20;99.90;0.60;94950.00;;;;5001129;28;20212;-74
2021/12/04 10:53:23;;;;;;;0.10;0.10;;;2.20;99.90;0.50;94858.00;;;;5001204;28;20212;-75
2021/12/04 10:55:58;;;;;;;0.10;0.10;;;2.10;99.90;0.50;94836.00;;;;5000091;28;20208;-74
2021/12/04 11:01:39;;;;;;;0.10;0.10;;;2.10;99.90;0.60;94999.00;;;;4989513;28;20219;-74
2021/12/04 11:04:26;;;;;;;0.10;0.10;;;2.10;99.90;0.60;94772.00;;;;4999919;28;20262;-75
2021/12/04 11:07:17;;;;;;;0.10;0.10;;;2.20;99.90;0.80;94961.00;;;;5000957;28;20239;-75
2021/12/04 11:24:18;;;;;;;0.10;0.10;;;2.60;99.90;0.90;94848.00;;;;4999512;28;20239;-74
2021/12/04 11:35:50;;;;;;;0.10;0.10;;;2.50;99.90;0.80;94901.00;;;;5015399;28;20720;-74
2021/12/04 11:41:15;;;;;;;0.10;0.10;;;2.40;99.90;0.90;94931.00;;;;4998910;28;20235;-75
2021/12/04 11:43:53;;;;;;;0.10;0.10;;;2.40;99.90;0.80;94856.00;;;;4999904;28;20215;-74
2021/12/04 11:46:30;;;;;;;0.10;0.10;;;2.40;99.90;0.80;94840.00;;;;5000901;28;20668;-75
2021/12/04 11:49:10;;;;;;;0.10;0.10;;;2.40;99.90;0.80;94820.00;;;;5000331;28;20210;-74
2021/12/04 11:51:52;;;;;;;0.10;0.10;;;2.40;99.90;0.80;94919.00;;;;5001897;28;20563;-74
2021/12/04 11:54:20;;;;;;;0.10;0.10;;;2.40;99.90;0.70;94831.00;;;;5003409;28;20731;-74
2021/12/04 11:57:00;;;;;;;0.10;0.10;;;2.40;99.90;0.80;94860.00;;;;5004948;28;20207;-74
2021/12/04 11:59:30;;;;;;;0.10;0.10;;;2.30;99.90;0.70;94900.00;;;;5004500;28;20277;-74
2021/12/04 12:02:01;;;;;;;0.10;0.10;;;2.30;99.90;0.70;94928.00;;;;5004768;28;20211;-74
2021/12/04 12:04:36;;;;;;;0.10;0.10;;;2.30;99.90;0.80;94969.00;;;;5004131;28;20700;-74
2021/12/04 12:07:17;;;;;;;0.10;0.10;;;2.30;99.90;0.50;94503.00;;;;5004217;28;20308;-74
2021/12/04 12:09:49;;;;;;;0.20;0.20;;;2.30;99.90;0.80;94974.00;;;;5004330;28;20192;-74
2021/12/04 12:12:19;;;;;;;0.20;0.20;;;2.30;99.90;0.60;94612.00;;;;5003516;28;20224;-74
2021/12/04 12:14:51;;;;;;;0.10;0.10;;;2.30;99.90;0.70;94959.00;;;;5003973;28;20192;-74
2021/12/04 12:17:31;;;;;;;0.10;0.10;;;2.30;99.90;0.80;95004.00;;;;5003800;28;20192;-74
2021/12/04 12:20:01;;;;;;;0.10;0.10;;;2.30;99.90;0.70;94960.00;;;;5003941;28;20260;-74
2021/12/04 12:22:40;;;;;;;0.10;0.10;;;2.20;99.90;0.70;94838.00;;;;5003427;28;20727;-74
2021/12/04 12:25:22;;;;;;;0.10;0.10;;;2.30;99.90;0.50;94347.00;;;;5004740;28;20603;-74
2021/12/04 12:33:44;;;;;;;0.10;0.10;;;2.30;99.90;0.40;94007.00;;;;5004258;28;20290;-74
2021/12/04 12:36:19;;;;;;;0.10;0.10;;;2.30;99.90;0.50;94030.00;;;;5004808;28;20192;-74
2021/12/04 12:38:53;;;;;;;0.10;0.10;;;2.40;99.90;0.70;94881.00;;;;5006806;28;20188;-74
2021/12/04 12:41:28;;;;;;;0.10;0.10;;;2.30;99.90;0.70;94883.00;;;;5005154;28;20216;-74
2021/12/04 12:44:11;;;;;;;0.10;0.10;;;2.30;99.90;0.60;94552.00;;;;5006185;28;20228;-74
2021/12/04 12:46:43;;;;;;;0.10;0.10;;;2.30;99.90;0.70;94908.00;;;;5006934;28;20220;-74
2021/12/04 12:49:24;;;;;;;0.10;0.10;;;2.30;99.90;0.80;94879.00;;;;5008933;28;20204;-74
2021/12/04 12:51:59;;;;;;;0.10;0.10;;;2.30;99.90;0.80;94863.00;;;;5007378;28;20814;-74
2021/12/04 12:54:34;;;;;;;0.10;0.10;;;2.40;99.90;0.80;94876.00;;;;5006828;28;20245;-74
2021/12/04 12:57:09;;;;;;;0.10;0.10;;;2.40;99.90;0.80;94911.00;;;;5003926;28;20212;-74
2021/12/04 12:59:55;;;;;;;0.10;0.10;;;2.30;99.90;0.80;94822.00;;;;5002452;28;20239;-74
2021/12/04 13:14:08;;;;;;;0.10;0.10;;;2.20;99.90;0.70;94927.00;;;;5002997;28;20215;-73
2021/12/04 13:16:37;;;;;;;0.10;0.10;;;2.20;99.90;0.50;94764.00;;;;5003041;28;20655;-74
2021/12/04 13:19:12;;;;;;;0.10;0.10;;;2.10;99.90;0.60;94925.00;;;;5002914;28;20613;-74
2021/12/04 13:21:45;;;;;;;0.10;0.10;;;2.10;99.90;0.60;94825.00;;;;5002726;28;20215;-74
2021/12/04 13:24:15;;;;;;;0.10;0.10;;;2.20;99.90;0.50;94664.00;;;;5002836;28;20721;-74
2021/12/04 13:26:49;;;;;;;0.10;0.10;;;2.10;99.90;0.50;94819.00;;;;5003301;28;20204;-74
2021/12/04 13:29:22;;;;;;;0.10;0.10;;;2.10;99.90;0.70;94888.00;;;;5002378;28;20226;-75
2021/12/04 13:31:55;;;;;;;0.10;0.10;;;2.20;99.90;0.70;94884.00;;;;5002623;28;20204;-74
2021/12/04 13:34:28;;;;;;;0.10;0.10;;;2.20;99.90;0.60;94918.00;;;;5002305;28;20198;-74
2021/12/04 13:36:58;;;;;;;0.10;0.10;;;2.10;99.90;0.60;94875.00;;;;5001675;28;20214;-74